createdAt,value
2018-05-08T00:00:10.095Z,95577
2018-05-08T00:02:40.756Z,95580
2018-05-08T00:05:11.286Z,95576
2018-05-08T00:07:41.912Z,95576
2018-05-08T00:10:12.562Z,95571
2018-05-08T00:12:43.628Z,95573
2018-05-08T00:15:14.292Z,95573
2018-05-08T00:17:44.988Z,95570
2018-05-08T00:20:15.664Z,95569
2018-05-08T00:22:46.298Z,95566
2018-05-08T00:25:16.842Z,95567
2018-05-08T00:27:47.421Z,95562
2018-05-08T00:30:18.333Z,95561
2018-05-08T00:32:48.859Z,95556
2018-05-08T00:35:19.402Z,95556
2018-05-08T00:37:50.044Z,95554
2018-05-08T00:40:20.696Z,95551
2018-05-08T00:42:51.357Z,95555
2018-05-08T00:45:21.939Z,95550
2018-05-08T00:47:52.588Z,95546
2018-05-08T00:50:23.154Z,95547
2018-05-08T00:52:53.773Z,95540
2018-05-08T00:55:24.412Z,95535
2018-05-08T00:57:55.025Z,95534
2018-05-08T01:00:25.733Z,95548
2018-05-08T01:02:56.340Z,95548
2018-05-08T01:05:26.955Z,95544
2018-05-08T01:07:57.592Z,95551
2018-05-08T01:10:28.325Z,95546
2018-05-08T01:12:58.934Z,95548
2018-05-08T01:15:29.584Z,95543
2018-05-08T01:18:00.598Z,95544
2018-05-08T01:20:31.348Z,95536
2018-05-08T01:23:01.998Z,95536
2018-05-08T01:25:32.651Z,95539
2018-05-08T01:28:03.260Z,95535
2018-05-08T01:30:33.851Z,95535
2018-05-08T01:33:04.451Z,95536
2018-05-08T01:35:35.086Z,95539
2018-05-08T01:38:05.720Z,95536
2018-05-08T01:40:36.382Z,95532
2018-05-08T01:43:07.023Z,95527
2018-05-08T01:45:37.648Z,95524
2018-05-08T01:48:08.223Z,95524
2018-05-08T01:50:38.850Z,95521
2018-05-08T01:53:09.500Z,95518
2018-05-08T01:55:40.146Z,95524
2018-05-08T01:58:10.685Z,95523
2018-05-08T02:00:41.236Z,95525
2018-05-08T02:03:11.867Z,95527
2018-05-08T02:05:42.463Z,95526
2018-05-08T02:08:13.145Z,95521
2018-05-08T02:10:43.739Z,95519
2018-05-08T02:13:14.410Z,95519
2018-05-08T02:15:44.980Z,95516
2018-05-08T02:18:15.612Z,95514
2018-05-08T02:20:46.241Z,95515
2018-05-08T02:23:16.879Z,95522
2018-05-08T02:25:47.495Z,95519
2018-05-08T02:28:18.458Z,95516
2018-05-08T02:30:49.138Z,95515
2018-05-08T02:33:19.892Z,95515
2018-05-08T02:35:50.568Z,95509
2018-05-08T02:38:21.183Z,95505
2018-05-08T02:40:51.856Z,95506
2018-05-08T02:43:22.597Z,95499
2018-05-08T02:45:53.267Z,95500
2018-05-08T02:48:23.852Z,95500
2018-05-08T02:50:54.420Z,95499
2018-05-08T02:53:24.985Z,95500
2018-05-08T02:55:55.656Z,95490
2018-05-08T02:58:26.267Z,95491
2018-05-08T03:00:56.868Z,95500
2018-05-08T03:03:27.407Z,95501
2018-05-08T03:05:58.116Z,95496
2018-05-08T03:08:28.976Z,95499
2018-05-08T03:10:59.609Z,95502
2018-05-08T03:13:30.224Z,95507
2018-05-08T03:16:00.861Z,95498
2018-05-08T03:18:31.405Z,95500
2018-05-08T03:21:02.199Z,95493
2018-05-08T03:23:32.793Z,95496
2018-05-08T03:26:03.561Z,95493
2018-05-08T03:28:34.147Z,95490
2018-05-08T03:31:04.870Z,95490
2018-05-08T03:33:35.441Z,95487
2018-05-08T03:36:06.026Z,95490
2018-05-08T03:38:36.642Z,95486
2018-05-08T03:41:07.224Z,95485
2018-05-08T03:43:37.861Z,95478
2018-05-08T03:46:08.437Z,95471
2018-05-08T03:48:39.198Z,95474
2018-05-08T03:51:09.992Z,95481
2018-05-08T03:53:40.515Z,95475
2018-05-08T03:59:32.245Z,95475
2018-05-08T04:05:13.108Z,95473
2018-05-08T04:08:50.464Z,95465
2018-05-08T04:11:21.015Z,95462
2018-05-08T04:13:51.949Z,95463
2018-05-08T04:16:22.551Z,95466
2018-05-08T04:18:53.076Z,95465
2018-05-08T04:21:23.847Z,95459
2018-05-08T04:23:54.812Z,95456
2018-05-08T04:26:25.412Z,95451
2018-05-08T04:28:56.020Z,95444
2018-05-08T04:31:26.551Z,95449
2018-05-08T04:33:57.243Z,95452
2018-05-08T04:36:27.880Z,95454
2018-05-08T04:38:58.464Z,95448
2018-05-08T04:41:29.088Z,95441
2018-05-08T04:43:59.743Z,95438
2018-05-08T04:46:30.374Z,95448
2018-05-08T04:49:01.024Z,95445
2018-05-08T04:51:31.652Z,95443
2018-05-08T04:54:02.300Z,95439
2018-05-08T04:56:33.033Z,95445
2018-05-08T04:59:03.654Z,95443
2018-05-08T05:01:34.244Z,95447
2018-05-08T05:04:04.919Z,95449
2018-05-08T05:06:35.699Z,95440
2018-05-08T05:09:06.728Z,95441
2018-05-08T05:11:37.371Z,95441
2018-05-08T05:14:07.933Z,95439
2018-05-08T05:16:38.554Z,95437
2018-05-08T05:19:09.238Z,95439
2018-05-08T05:21:40.182Z,95437
2018-05-08T05:24:11.078Z,95434
2018-05-08T05:26:41.694Z,95434
2018-05-08T05:29:12.631Z,95434
2018-05-08T05:31:43.383Z,95427
2018-05-08T05:34:14.208Z,95430
2018-05-08T05:36:44.885Z,95424
2018-05-08T05:39:15.623Z,95423
2018-05-08T05:41:46.246Z,95423
2018-05-08T05:44:16.919Z,95420
2018-05-08T05:46:47.832Z,95427
2018-05-08T05:49:18.608Z,95418
2018-05-08T05:51:49.264Z,95420
2018-05-08T05:54:19.814Z,95415
2018-05-08T05:56:50.928Z,95415
2018-05-08T05:59:21.521Z,95417
2018-05-08T06:02:00.432Z,95418
2018-05-08T06:04:31.384Z,95416
2018-05-08T06:07:02.195Z,95414
2018-05-08T06:09:32.868Z,95412
2018-05-08T06:12:03.647Z,95409
2018-05-08T06:14:34.386Z,95410
2018-05-08T06:17:05.659Z,95413
2018-05-08T06:19:36.312Z,95415
2018-05-08T06:22:07.468Z,95413
2018-05-08T06:24:38.085Z,95417
2018-05-08T06:27:08.868Z,95411
2018-05-08T06:29:39.482Z,95405
2018-05-08T06:32:10.052Z,95404
2018-05-08T06:34:40.529Z,95404
2018-05-08T06:37:11.699Z,95397
2018-05-08T06:39:42.175Z,95398
2018-05-08T06:42:12.751Z,95398
2018-05-08T06:44:43.340Z,95397
2018-05-08T06:47:13.887Z,95396
2018-05-08T06:49:44.472Z,95396
2018-05-08T06:52:15.283Z,95398
2018-05-08T06:54:46.060Z,95396
2018-05-08T06:57:17.225Z,95396
2018-05-08T06:59:47.841Z,95393
2018-05-08T07:02:18.420Z,95394
2018-05-08T07:04:49.606Z,95389
2018-05-08T07:07:20.592Z,95386
2018-05-08T07:09:51.179Z,95381
2018-05-08T07:12:21.903Z,95389
2018-05-08T07:14:52.553Z,95393
2018-05-08T07:17:23.144Z,95395
2018-05-08T07:19:53.801Z,95391
2018-05-08T07:22:24.762Z,95393
2018-05-08T07:24:55.439Z,95390
2018-05-08T07:27:26.726Z,95387
2018-05-08T07:29:57.836Z,95376
2018-05-08T07:32:28.423Z,95374
2018-05-08T07:34:59.446Z,95375
2018-05-08T07:37:30.484Z,95381
2018-05-08T07:40:01.195Z,95374
2018-05-08T07:42:32.037Z,95375
2018-05-08T07:45:02.794Z,95378
2018-05-08T07:47:33.700Z,95377
2018-05-08T07:50:04.833Z,95375
2018-05-08T07:52:35.558Z,95374
2018-05-08T07:55:06.709Z,95374
2018-05-08T07:57:37.867Z,95379
2018-05-08T08:00:08.491Z,95376
2018-05-08T08:02:41.280Z,95375
2018-05-08T08:05:16.442Z,95371
2018-05-08T08:07:47.671Z,95378
2018-05-08T08:10:18.249Z,95368
2018-05-08T08:12:49.463Z,95371
2018-05-08T08:15:19.972Z,95370
2018-05-08T08:17:50.932Z,95363
2018-05-08T08:20:21.499Z,95365
2018-05-08T08:22:52.175Z,95364
2018-05-08T08:25:22.934Z,95363
2018-05-08T08:27:53.500Z,95357
2018-05-08T08:30:24.084Z,95354
2018-05-08T08:32:54.653Z,95352
2018-05-08T08:35:25.273Z,95344
2018-05-08T08:37:55.867Z,95351
2018-05-08T08:40:26.486Z,95347
2018-05-08T08:42:57.088Z,95342
2018-05-08T08:45:28.783Z,95343
2018-05-08T08:47:59.381Z,95342
2018-05-08T08:50:30.063Z,95340
2018-05-08T08:53:02.075Z,95339
2018-05-08T08:55:32.727Z,95337
2018-05-08T08:58:03.827Z,95331
2018-05-08T09:00:34.458Z,95337
2018-05-08T09:03:05.116Z,95332
2018-05-08T09:05:35.849Z,95337
2018-05-08T09:08:06.480Z,95325
2018-05-08T09:10:37.227Z,95319
2018-05-08T09:13:07.918Z,95318
2018-05-08T09:15:38.551Z,95320
2018-05-08T09:18:09.114Z,95314
2018-05-08T09:20:39.898Z,95307
2018-05-08T09:23:10.517Z,95312
2018-05-08T09:25:41.338Z,95311
2018-05-08T09:28:11.965Z,95305
2018-05-08T09:30:43.552Z,95308
2018-05-08T09:33:14.123Z,95304
2018-05-08T09:35:44.884Z,95306
2018-05-08T09:38:15.452Z,95300
2018-05-08T09:40:46.171Z,95299
2018-05-08T09:43:16.814Z,95295
2018-05-08T09:45:47.299Z,95292
2018-05-08T09:48:17.984Z,95290
2018-05-08T09:50:48.699Z,95284
2018-05-08T09:53:19.245Z,95273
2018-05-08T09:55:49.896Z,95285
2018-05-08T09:58:20.678Z,95284
2018-05-08T10:00:51.722Z,95270
2018-05-08T10:03:22.568Z,95274
2018-05-08T10:05:53.161Z,95273
2018-05-08T10:08:23.965Z,95280
2018-05-08T10:10:56.456Z,95263
2018-05-08T10:13:27.765Z,95258
2018-05-08T10:15:58.391Z,95255
2018-05-08T10:18:29.057Z,95252
2018-05-08T10:20:59.815Z,95248
2018-05-08T10:23:30.592Z,95260
2018-05-08T10:26:01.119Z,95240
2018-05-08T10:28:31.929Z,95237
2018-05-08T10:31:02.639Z,95245
2018-05-08T10:33:33.395Z,95239
2018-05-08T10:36:04.136Z,95234
2018-05-08T10:38:34.711Z,95227
2018-05-08T10:41:05.359Z,95232
2018-05-08T10:43:36.061Z,95235
2018-05-08T10:46:06.905Z,95231
2018-05-08T10:48:37.532Z,95222
2018-05-08T10:51:08.307Z,95223
2018-05-08T10:53:38.921Z,95222
2018-05-08T10:56:09.904Z,95213
2018-05-08T10:58:40.666Z,95217
2018-05-08T11:01:11.457Z,95213
2018-05-08T11:03:43.690Z,95212
2018-05-08T11:06:14.870Z,95214
2018-05-08T11:08:46.052Z,95212
2018-05-08T11:11:16.830Z,95203
2018-05-08T11:13:47.393Z,95205
2018-05-08T11:16:18.149Z,95195
2018-05-08T11:18:49.214Z,95192
2018-05-08T11:21:21.065Z,95191
2018-05-08T11:23:53.950Z,95186
2018-05-08T11:26:25.839Z,95174
2018-05-08T11:28:56.745Z,95178
2018-05-08T11:31:27.268Z,95173
2018-05-08T11:33:57.924Z,95167
2018-05-08T11:36:28.689Z,95174
2018-05-08T11:38:59.380Z,95170
2018-05-08T11:41:30.060Z,95163
2018-05-08T11:44:00.789Z,95163
2018-05-08T11:46:31.391Z,95150
2018-05-08T11:49:02.343Z,95147
2018-05-08T11:51:33.006Z,95146
2018-05-08T11:54:03.734Z,95155
2018-05-08T11:56:34.323Z,95147
2018-05-08T11:59:05.175Z,95143
2018-05-08T12:01:36.092Z,95139
2018-05-08T12:04:06.645Z,95142
2018-05-08T12:06:37.507Z,95132
2018-05-08T12:09:08.023Z,95133
2018-05-08T12:11:38.694Z,95133
2018-05-08T12:14:09.555Z,95131
2018-05-08T12:16:40.355Z,95126
2018-05-08T12:19:11.059Z,95112
2018-05-08T12:21:41.826Z,95112
2018-05-08T12:24:12.540Z,95102
2018-05-08T12:26:43.111Z,95100
2018-05-08T12:29:13.890Z,95093
2018-05-08T12:31:44.593Z,95096
2018-05-08T12:34:15.701Z,95092
2018-05-08T12:36:46.352Z,95085
2018-05-08T12:39:16.950Z,95098
2018-05-08T12:41:47.473Z,95091
2018-05-08T12:44:18.224Z,95089
2018-05-08T12:46:49.418Z,95080
2018-05-08T12:49:20.816Z,95073
2018-05-08T12:51:51.564Z,95070
2018-05-08T12:54:22.619Z,95066
2018-05-08T12:56:53.347Z,95066
2018-05-08T12:59:24.185Z,95064
2018-05-08T13:01:55.157Z,95057
2018-05-08T13:04:26.108Z,95055
2018-05-08T13:06:56.649Z,95064
2018-05-08T13:09:27.406Z,95056
2018-05-08T13:11:58.106Z,95048
2018-05-08T13:14:28.794Z,95055
2018-05-08T13:16:59.448Z,95060
2018-05-08T13:19:30.243Z,95046
2018-05-08T13:22:01.025Z,95050
2018-05-08T13:24:32.091Z,95056
2018-05-08T13:27:02.883Z,95040
2018-05-08T13:29:33.507Z,95042
2018-05-08T13:32:04.576Z,95038
2018-05-08T13:34:35.280Z,95040
2018-05-08T13:37:06.635Z,95032
2018-05-08T13:39:37.328Z,95030
2018-05-08T13:42:10.626Z,95023
2018-05-08T13:44:42.063Z,95023
2018-05-08T13:47:18.417Z,95014
2018-05-08T13:49:52.984Z,95015
2018-05-08T13:52:26.538Z,95010
2018-05-08T13:54:57.065Z,95012
2018-05-08T13:57:27.769Z,95022
2018-05-08T13:59:58.418Z,95019
2018-05-08T14:02:29.512Z,95016
2018-05-08T14:05:00.089Z,95014
2018-05-08T14:07:31.101Z,95012
2018-05-08T14:10:02.020Z,95011
2018-05-08T14:12:32.695Z,95009
2018-05-08T14:15:03.409Z,95008
2018-05-08T14:17:34.168Z,95008
2018-05-08T14:20:04.956Z,95002
2018-05-08T14:22:35.749Z,95004
2018-05-08T14:25:06.388Z,95005
2018-05-08T14:27:37.857Z,94998
2018-05-08T14:30:10.941Z,94998
2018-05-08T14:32:42.521Z,94996
2018-05-08T14:35:13.775Z,94993
2018-05-08T14:37:45.052Z,94994
2018-05-08T14:40:16.131Z,94986
2018-05-08T14:42:47.153Z,94991
2018-05-08T14:45:18.382Z,94993
2018-05-08T14:47:49.733Z,94985
2018-05-08T14:50:20.783Z,94978
2018-05-08T14:52:52.308Z,94979
2018-05-08T14:55:23.448Z,94972
2018-05-08T14:57:55.913Z,94969
2018-05-08T15:00:27.439Z,94971
2018-05-08T15:02:58.508Z,94966
2018-05-08T15:05:29.817Z,94966
2018-05-08T15:08:01.939Z,94969
2018-05-08T15:10:33.027Z,94977
2018-05-08T15:13:05.657Z,94969
2018-05-08T15:15:36.693Z,94969
2018-05-08T15:18:07.701Z,94964
2018-05-08T15:20:38.814Z,94958
2018-05-08T15:23:10.168Z,94963
2018-05-08T15:25:41.120Z,94949
2018-05-08T15:28:12.438Z,94944
2018-05-08T15:30:43.366Z,94947
2018-05-08T15:33:15.206Z,94948
2018-05-08T15:35:47.213Z,94942
2018-05-08T15:38:18.819Z,94945
2018-05-08T15:40:49.743Z,94935
2018-05-08T15:43:21.433Z,94935
2018-05-08T15:45:52.516Z,94947
2018-05-08T15:48:23.859Z,94937
2018-05-08T15:50:54.876Z,94933
2018-05-08T15:53:26.050Z,94932
2018-05-08T15:55:57.234Z,94929
2018-05-08T15:58:28.409Z,94931
2018-05-08T16:00:59.614Z,94938
2018-05-08T16:03:30.827Z,94942
2018-05-08T16:06:02.538Z,94937
2018-05-08T16:08:34.420Z,94940
2018-05-08T16:11:05.550Z,94939
2018-05-08T16:13:36.552Z,94941
2018-05-08T16:16:07.521Z,94934
2018-05-08T16:18:39.129Z,94929
2018-05-08T16:21:10.300Z,94929
2018-05-08T16:23:41.602Z,94919
2018-05-08T16:26:13.145Z,94915
2018-05-08T16:28:44.244Z,94922
2018-05-08T16:31:15.261Z,94912
2018-05-08T16:33:46.723Z,94912
2018-05-08T16:36:17.936Z,94911
2018-05-08T16:38:49.308Z,94920
2018-05-08T16:41:20.418Z,94914
2018-05-08T16:43:52.219Z,94916
2018-05-08T16:46:23.113Z,94914
2018-05-08T16:48:54.326Z,94910
2018-05-08T16:51:25.515Z,94916
2018-05-08T16:53:56.677Z,94911
2018-05-08T16:56:28.104Z,94917
2018-05-08T16:58:59.381Z,94912
2018-05-08T17:01:31.101Z,94911
2018-05-08T17:04:02.521Z,94912
2018-05-08T17:06:33.837Z,94913
2018-05-08T17:09:06.098Z,94913
2018-05-08T17:11:37.099Z,94910
2018-05-08T17:14:08.286Z,94905
2018-05-08T17:16:39.287Z,94904
2018-05-08T17:19:10.871Z,94905
2018-05-08T17:21:41.958Z,94911
2018-05-08T17:24:13.322Z,94907
2018-05-08T17:26:44.402Z,94904
2018-05-08T17:29:15.703Z,94912
2018-05-08T17:31:46.642Z,94910
2018-05-08T17:34:19.314Z,94915
2018-05-08T17:36:50.372Z,94918
2018-05-08T17:39:21.391Z,94920
2018-05-08T17:41:51.997Z,94917
2018-05-08T17:44:22.875Z,94914
2018-05-08T17:46:53.435Z,94917
2018-05-08T17:49:25.818Z,94919
2018-05-08T17:51:56.623Z,94910
2018-05-08T17:54:27.316Z,94913
2018-05-08T17:56:57.828Z,94915
2018-05-08T17:59:28.667Z,94916
2018-05-08T18:01:59.525Z,94913
2018-05-08T18:04:30.483Z,94908
2018-05-08T18:07:01.093Z,94912
2018-05-08T18:09:32.074Z,94911
2018-05-08T18:12:02.672Z,94908
2018-05-08T18:14:33.664Z,94903
2018-05-08T18:17:04.291Z,94912
2018-05-08T18:19:34.901Z,94907
2018-05-08T18:22:06.320Z,94914
2018-05-08T18:24:36.884Z,94915
2018-05-08T18:27:07.411Z,94919
2018-05-08T18:29:38.286Z,94921
2018-05-08T18:32:08.809Z,94915
2018-05-08T18:34:39.392Z,94919
2018-05-08T18:37:09.936Z,94919
2018-05-08T18:39:40.876Z,94924
2018-05-08T18:42:11.503Z,94929
2018-05-08T18:44:42.425Z,94925
2018-05-08T18:47:12.890Z,94929
2018-05-08T18:49:44.767Z,94928
2018-05-08T18:52:15.555Z,94928
2018-05-08T18:54:46.192Z,94938
2018-05-08T18:57:16.808Z,94935
2018-05-08T18:59:47.553Z,94935
2018-05-08T19:02:18.484Z,94937
2018-05-08T19:04:51.491Z,94945
2018-05-08T19:07:28.467Z,94946
2018-05-08T19:10:00.627Z,94954
2018-05-08T19:12:31.696Z,94955
2018-05-08T19:15:06.431Z,94953
2018-05-08T19:17:36.996Z,94954
2018-05-08T19:20:08.507Z,94953
2018-05-08T19:22:39.429Z,94950
2018-05-08T19:25:10.324Z,94954
2018-05-08T19:27:40.924Z,94957
2018-05-08T19:30:42.238Z,94961
2018-05-08T19:33:12.939Z,94960
2018-05-08T19:36:52.684Z,94958
2018-05-08T19:39:23.652Z,94956
2018-05-08T19:41:54.232Z,94956
2018-05-08T19:44:30.595Z,94954
2018-05-08T19:47:01.409Z,94952
2018-05-08T19:49:32.015Z,94950
2018-05-08T19:52:02.700Z,94948
2018-05-08T19:54:33.401Z,94950
2018-05-08T19:57:04.063Z,94950
2018-05-08T19:59:34.711Z,94950
2018-05-08T20:02:05.412Z,94951
2018-05-08T20:04:36.100Z,94953
2018-05-08T20:07:06.716Z,94958
2018-05-08T20:09:37.267Z,94955
2018-05-08T20:12:07.923Z,94952
2018-05-08T20:14:38.656Z,94953
2018-05-08T20:17:09.423Z,94955
2018-05-08T20:19:40.090Z,94960
2018-05-08T20:22:10.987Z,94960
2018-05-08T20:24:41.938Z,94962
2018-05-08T20:27:12.548Z,94963
2018-05-08T20:29:43.181Z,94960
2018-05-08T20:32:14.183Z,94958
2018-05-08T20:37:58.124Z,94962
2018-05-08T20:40:29.252Z,94961
2018-05-08T20:43:00.230Z,94958
2018-05-08T20:45:30.938Z,94963
2018-05-08T20:48:01.970Z,94960
2018-05-08T20:50:32.988Z,94952
2018-05-08T20:53:04.457Z,94961
2018-05-08T20:55:35.380Z,94956
2018-05-08T20:58:06.347Z,94956
2018-05-08T21:00:38.660Z,94957
2018-05-08T21:03:09.558Z,94955
2018-05-08T21:05:40.231Z,94950
2018-05-08T21:08:11.223Z,94949
2018-05-08T21:10:41.979Z,94952
2018-05-08T21:13:22.123Z,94955
2018-05-08T21:15:52.794Z,94951
2018-05-08T21:18:23.364Z,94948
2018-05-08T21:20:54.094Z,94944
2018-05-08T21:23:25.216Z,94946
2018-05-08T21:25:55.690Z,94946
2018-05-08T21:28:30.287Z,94950
2018-05-08T21:31:16.974Z,94944
2018-05-08T21:33:47.798Z,94937
2018-05-08T21:36:18.405Z,94938
2018-05-08T21:38:48.933Z,94944
2018-05-08T21:41:19.839Z,94945
2018-05-08T21:43:50.819Z,94941
2018-05-08T21:46:21.442Z,94943
2018-05-08T21:48:52.246Z,94944
2018-05-08T21:51:23.059Z,94943
2018-05-08T21:53:54.547Z,94947
2018-05-08T21:56:25.370Z,94941
2018-05-08T21:58:58.519Z,94943
2018-05-08T22:01:29.300Z,94949
2018-05-08T22:04:00.128Z,94954
2018-05-08T22:06:30.954Z,94952
2018-05-08T22:09:09.766Z,94947
2018-05-08T22:11:40.601Z,94945
2018-05-08T22:14:11.801Z,94947
2018-05-08T22:16:42.539Z,94956
2018-05-08T22:19:13.370Z,94955
2018-05-08T22:21:44.047Z,94957
2018-05-08T22:24:14.786Z,94951
2018-05-08T22:26:45.575Z,94952
2018-05-08T22:29:20.012Z,94948
2018-05-08T22:31:50.778Z,94953
2018-05-08T22:34:22.557Z,94955
2018-05-08T22:36:53.346Z,94957
2018-05-08T22:39:26.339Z,94953
2018-05-08T22:41:57.170Z,94956
2018-05-08T22:44:28.535Z,94956
2018-05-08T22:46:59.868Z,94949
2018-05-08T22:49:30.979Z,94951
2018-05-08T22:52:01.768Z,94950
2018-05-08T22:54:32.463Z,94947
2018-05-08T22:57:03.239Z,94945
2018-05-08T22:59:34.639Z,94944
2018-05-08T23:02:05.541Z,94948
2018-05-08T23:04:36.327Z,94950
2018-05-08T23:07:07.164Z,94951
2018-05-08T23:09:54.147Z,94951
2018-05-08T23:12:24.710Z,94952
2018-05-08T23:14:55.806Z,94954
2018-05-08T23:17:26.560Z,94946
2018-05-08T23:19:57.238Z,94946
2018-05-08T23:22:28.129Z,94942
2018-05-08T23:24:59.127Z,94947
2018-05-08T23:27:29.972Z,94945
2018-05-08T23:30:00.822Z,94949
2018-05-08T23:32:36.553Z,94949
2018-05-08T23:35:07.461Z,94947
2018-05-08T23:37:38.286Z,94945
2018-05-08T23:40:25.224Z,94946
2018-05-08T23:42:56.107Z,94950
2018-05-08T23:45:27.124Z,94947
2018-05-08T23:47:57.707Z,94944
2018-05-08T23:50:28.484Z,94941
2018-05-08T23:52:59.268Z,94940
2018-05-08T23:55:30.055Z,94943
2018-05-08T23:58:00.823Z,94939
